sensor_id;sensor_type;location;lat;lon;timestamp;P1;durP1;ratioP1;P2;durP2;ratioP2
70337;SDS011;57757;53.198;19.646;2022-07-01T00:02:06;13.90;;;7.20;;
70337;SDS011;57757;53.198;19.646;2022-07-01T00:04:33;11.50;;;6.30;;
70337;SDS011;57757;53.198;19.646;2022-07-01T00:07:01;12.50;;;7.20;;
70337;SDS011;57757;53.198;19.646;2022-07-01T00:09:29;15.60;;;7.10;;
70337;SDS011;57757;53.198;19.646;2022-07-01T00:11:56;12.70;;;7.10;;
70337;SDS011;57757;53.198;19.646;2022-07-01T00:14:23;12.10;;;7.40;;
70337;SDS011;57757;53.198;19.646;2022-07-01T00:16:51;12.00;;;6.90;;
70337;SDS011;57757;53.198;19.646;2022-07-01T00:19:18;18.10;;;6.90;;
70337;SDS011;57757;53.198;19.646;2022-07-01T00:21:46;14.50;;;7.60;;
70337;SDS011;57757;53.198;19.646;2022-07-01T00:24:14;12.60;;;8.40;;
70337;SDS011;57757;53.198;19.646;2022-07-01T00:26:41;15.30;;;7.40;;
70337;SDS011;57757;53.198;19.646;2022-07-01T00:29:09;14.00;;;7.50;;
70337;SDS011;57757;53.198;19.646;2022-07-01T00:31:36;15.00;;;8.10;;
70337;SDS011;57757;53.198;19.646;2022-07-01T00:34:04;19.60;;;8.80;;
70337;SDS011;57757;53.198;19.646;2022-07-01T00:36:32;15.20;;;8.30;;
70337;SDS011;57757;53.198;19.646;2022-07-01T00:51:24;14.00;;;6.40;;
70337;SDS011;57757;53.198;19.646;2022-07-01T00:53:52;16.40;;;7.50;;
70337;SDS011;57757;53.198;19.646;2022-07-01T00:56:20;14.70;;;6.60;;
70337;SDS011;57757;53.198;19.646;2022-07-01T00:58:48;13.10;;;6.80;;
70337;SDS011;57757;53.198;19.646;2022-07-01T01:01:15;14.90;;;7.20;;
70337;SDS011;57757;53.198;19.646;2022-07-01T01:03:44;16.30;;;7.60;;
70337;SDS011;57757;53.198;19.646;2022-07-01T01:06:12;15.60;;;8.30;;
70337;SDS011;57757;53.198;19.646;2022-07-01T01:08:40;14.70;;;7.70;;
70337;SDS011;57757;53.198;19.646;2022-07-01T01:11:07;12.60;;;7.10;;
70337;SDS011;57757;53.198;19.646;2022-07-01T01:13:35;12.20;;;6.20;;
70337;SDS011;57757;53.198;19.646;2022-07-01T01:16:03;13.00;;;7.70;;
70337;SDS011;57757;53.198;19.646;2022-07-01T01:18:30;14.20;;;8.00;;
70337;SDS011;57757;53.198;19.646;2022-07-01T01:20:58;16.40;;;7.70;;
70337;SDS011;57757;53.198;19.646;2022-07-01T01:23:25;18.30;;;8.30;;
70337;SDS011;57757;53.198;19.646;2022-07-01T01:25:53;13.70;;;8.50;;
70337;SDS011;57757;53.198;19.646;2022-07-01T01:28:20;15.20;;;8.00;;
70337;SDS011;57757;53.198;19.646;2022-07-01T01:30:48;16.90;;;8.50;;
70337;SDS011;57757;53.198;19.646;2022-07-01T01:33:15;15.50;;;8.70;;
70337;SDS011;57757;53.198;19.646;2022-07-01T01:35:43;14.60;;;8.00;;
70337;SDS011;57757;53.198;19.646;2022-07-01T01:38:10;15.90;;;8.50;;
70337;SDS011;57757;53.198;19.646;2022-07-01T01:40:38;13.60;;;7.90;;
70337;SDS011;57757;53.198;19.646;2022-07-01T01:43:05;12.30;;;7.40;;
70337;SDS011;57757;53.198;19.646;2022-07-01T01:45:33;16.10;;;8.10;;
70337;SDS011;57757;53.198;19.646;2022-07-01T01:48:00;15.00;;;8.00;;
70337;SDS011;57757;53.198;19.646;2022-07-01T01:50:28;13.90;;;8.00;;
70337;SDS011;57757;53.198;19.646;2022-07-01T01:52:56;15.70;;;8.50;;
70337;SDS011;57757;53.198;19.646;2022-07-01T01:55:23;12.70;;;7.90;;
70337;SDS011;57757;53.198;19.646;2022-07-01T01:57:51;13.80;;;7.60;;
70337;SDS011;57757;53.198;19.646;2022-07-01T02:00:18;16.10;;;7.90;;
70337;SDS011;57757;53.198;19.646;2022-07-01T02:02:46;13.60;;;7.70;;
70337;SDS011;57757;53.198;19.646;2022-07-01T02:05:14;13.60;;;8.20;;
70337;SDS011;57757;53.198;19.646;2022-07-01T02:07:41;17.30;;;8.70;;
70337;SDS011;57757;53.198;19.646;2022-07-01T02:10:09;14.60;;;8.60;;
70337;SDS011;57757;53.198;19.646;2022-07-01T02:12:37;13.90;;;8.00;;
70337;SDS011;57757;53.198;19.646;2022-07-01T02:15:04;12.30;;;8.00;;
70337;SDS011;57757;53.198;19.646;2022-07-01T02:17:32;14.70;;;7.90;;
70337;SDS011;57757;53.198;19.646;2022-07-01T02:20:00;12.40;;;8.30;;
70337;SDS011;57757;53.198;19.646;2022-07-01T02:22:27;15.50;;;8.80;;
70337;SDS011;57757;53.198;19.646;2022-07-01T02:24:55;16.60;;;9.00;;
70337;SDS011;57757;53.198;19.646;2022-07-01T02:27:23;13.30;;;9.10;;
70337;SDS011;57757;53.198;19.646;2022-07-01T02:29:50;14.60;;;9.20;;
70337;SDS011;57757;53.198;19.646;2022-07-01T02:32:18;16.90;;;9.20;;
70337;SDS011;57757;53.198;19.646;2022-07-01T02:34:46;15.30;;;8.90;;
70337;SDS011;57757;53.198;19.646;2022-07-01T02:37:13;15.40;;;8.80;;
70337;SDS011;57757;53.198;19.646;2022-07-01T02:39:41;16.80;;;9.70;;
70337;SDS011;57757;53.198;19.646;2022-07-01T02:42:08;15.10;;;9.30;;
70337;SDS011;57757;53.198;19.646;2022-07-01T02:44:53;14.60;;;10.20;;
70337;SDS011;57757;53.198;19.646;2022-07-01T02:47:23;15.40;;;9.30;;
70337;SDS011;57757;53.198;19.646;2022-07-01T02:49:51;15.80;;;9.90;;
70337;SDS011;57757;53.198;19.646;2022-07-01T02:52:23;16.30;;;9.50;;
70337;SDS011;57757;53.198;19.646;2022-07-01T02:54:50;17.10;;;9.40;;
70337;SDS011;57757;53.198;19.646;2022-07-01T02:57:18;16.30;;;9.30;;
70337;SDS011;57757;53.198;19.646;2022-07-01T02:59:46;15.10;;;8.80;;
70337;SDS011;57757;53.198;19.646;2022-07-01T03:02:13;14.70;;;8.60;;
70337;SDS011;57757;53.198;19.646;2022-07-01T03:04:41;13.30;;;8.30;;
70337;SDS011;57757;53.198;19.646;2022-07-01T03:07:09;13.10;;;9.20;;
70337;SDS011;57757;53.198;19.646;2022-07-01T03:09:37;13.80;;;8.70;;
70337;SDS011;57757;53.198;19.646;2022-07-01T03:12:10;14.20;;;8.30;;
70337;SDS011;57757;53.198;19.646;2022-07-01T03:15:02;13.00;;;8.80;;
70337;SDS011;57757;53.198;19.646;2022-07-01T03:17:50;16.20;;;10.30;;
70337;SDS011;57757;53.198;19.646;2022-07-01T03:20:18;14.90;;;9.80;;
70337;SDS011;57757;53.198;19.646;2022-07-01T03:22:46;14.00;;;9.50;;
70337;SDS011;57757;53.198;19.646;2022-07-01T03:25:14;16.30;;;9.90;;
70337;SDS011;57757;53.198;19.646;2022-07-01T03:27:41;17.30;;;9.00;;
70337;SDS011;57757;53.198;19.646;2022-07-01T03:30:13;14.40;;;8.40;;
70337;SDS011;57757;53.198;19.646;2022-07-01T03:32:42;14.90;;;9.30;;
70337;SDS011;57757;53.198;19.646;2022-07-01T03:35:09;12.90;;;8.70;;
70337;SDS011;57757;53.198;19.646;2022-07-01T03:37:57;14.80;;;8.30;;
70337;SDS011;57757;53.198;19.646;2022-07-01T03:40:25;12.70;;;8.10;;
70337;SDS011;57757;53.198;19.646;2022-07-01T03:42:52;12.80;;;8.60;;
70337;SDS011;57757;53.198;19.646;2022-07-01T03:45:20;15.90;;;8.40;;
70337;SDS011;57757;53.198;19.646;2022-07-01T03:47:48;15.30;;;8.40;;
70337;SDS011;57757;53.198;19.646;2022-07-01T03:50:17;13.10;;;8.40;;
70337;SDS011;57757;53.198;19.646;2022-07-01T03:52:47;13.40;;;8.40;;
70337;SDS011;57757;53.198;19.646;2022-07-01T03:55:15;13.90;;;8.80;;
70337;SDS011;57757;53.198;19.646;2022-07-01T03:57:43;14.40;;;9.10;;
70337;SDS011;57757;53.198;19.646;2022-07-01T04:00:11;13.20;;;8.60;;
70337;SDS011;57757;53.198;19.646;2022-07-01T04:02:48;12.50;;;8.30;;
70337;SDS011;57757;53.198;19.646;2022-07-01T04:05:15;14.40;;;9.10;;
70337;SDS011;57757;53.198;19.646;2022-07-01T04:07:43;14.00;;;9.70;;
70337;SDS011;57757;53.198;19.646;2022-07-01T04:10:11;16.70;;;9.50;;
70337;SDS011;57757;53.198;19.646;2022-07-01T04:12:39;12.40;;;9.00;;
70337;SDS011;57757;53.198;19.646;2022-07-01T04:15:12;13.60;;;8.70;;
70337;SDS011;57757;53.198;19.646;2022-07-01T04:17:39;13.70;;;8.80;;
70337;SDS011;57757;53.198;19.646;2022-07-01T04:20:07;13.90;;;9.20;;
70337;SDS011;57757;53.198;19.646;2022-07-01T04:22:35;15.70;;;9.70;;
70337;SDS011;57757;53.198;19.646;2022-07-01T04:25:03;15.20;;;9.20;;
70337;SDS011;57757;53.198;19.646;2022-07-01T04:27:31;14.90;;;8.70;;
70337;SDS011;57757;53.198;19.646;2022-07-01T04:29:59;16.20;;;9.20;;
70337;SDS011;57757;53.198;19.646;2022-07-01T04:32:29;12.80;;;8.70;;
70337;SDS011;57757;53.198;19.646;2022-07-01T04:34:57;14.70;;;9.80;;
70337;SDS011;57757;53.198;19.646;2022-07-01T04:37:25;17.00;;;10.10;;
70337;SDS011;57757;53.198;19.646;2022-07-01T04:39:52;14.00;;;9.60;;
70337;SDS011;57757;53.198;19.646;2022-07-01T04:42:20;14.40;;;9.30;;
70337;SDS011;57757;53.198;19.646;2022-07-01T04:44:49;15.60;;;9.00;;
70337;SDS011;57757;53.198;19.646;2022-07-01T04:47:17;13.40;;;9.30;;
70337;SDS011;57757;53.198;19.646;2022-07-01T04:49:45;16.00;;;9.80;;
70337;SDS011;57757;53.198;19.646;2022-07-01T04:52:12;15.80;;;10.20;;
70337;SDS011;57757;53.198;19.646;2022-07-01T04:54:40;16.70;;;9.40;;
70337;SDS011;57757;53.198;19.646;2022-07-01T04:57:09;15.60;;;9.00;;
70337;SDS011;57757;53.198;19.646;2022-07-01T04:59:36;14.10;;;9.30;;
70337;SDS011;57757;53.198;19.646;2022-07-01T05:02:04;16.20;;;9.80;;
70337;SDS011;57757;53.198;19.646;2022-07-01T05:04:38;17.50;;;10.30;;
70337;SDS011;57757;53.198;19.646;2022-07-01T05:07:08;15.40;;;10.10;;
70337;SDS011;57757;53.198;19.646;2022-07-01T05:09:55;16.30;;;10.30;;
70337;SDS011;57757;53.198;19.646;2022-07-01T05:12:24;14.30;;;9.60;;
70337;SDS011;57757;53.198;19.646;2022-07-01T05:14:51;14.00;;;9.80;;
70337;SDS011;57757;53.198;19.646;2022-07-01T05:17:19;14.60;;;10.10;;
70337;SDS011;57757;53.198;19.646;2022-07-01T05:19:46;16.50;;;10.60;;
70337;SDS011;57757;53.198;19.646;2022-07-01T05:22:30;17.50;;;10.60;;
70337;SDS011;57757;53.198;19.646;2022-07-01T05:24:57;17.20;;;10.20;;
70337;SDS011;57757;53.198;19.646;2022-07-01T05:27:25;19.00;;;10.90;;
70337;SDS011;57757;53.198;19.646;2022-07-01T05:29:52;15.70;;;10.60;;
70337;SDS011;57757;53.198;19.646;2022-07-01T05:32:20;14.90;;;9.40;;
70337;SDS011;57757;53.198;19.646;2022-07-01T05:34:48;15.30;;;11.10;;
70337;SDS011;57757;53.198;19.646;2022-07-01T05:37:15;20.70;;;11.40;;
70337;SDS011;57757;53.198;19.646;2022-07-01T05:39:44;17.80;;;11.20;;
70337;SDS011;57757;53.198;19.646;2022-07-01T05:42:17;16.70;;;10.80;;
70337;SDS011;57757;53.198;19.646;2022-07-01T05:44:45;18.50;;;11.20;;
70337;SDS011;57757;53.198;19.646;2022-07-01T05:47:12;16.90;;;11.00;;
70337;SDS011;57757;53.198;19.646;2022-07-01T05:49:40;15.90;;;10.70;;
70337;SDS011;57757;53.198;19.646;2022-07-01T05:52:07;17.60;;;12.50;;
70337;SDS011;57757;53.198;19.646;2022-07-01T05:54:35;20.80;;;11.90;;
70337;SDS011;57757;53.198;19.646;2022-07-01T05:57:03;20.20;;;12.30;;
70337;SDS011;57757;53.198;19.646;2022-07-01T05:59:35;15.30;;;12.00;;
70337;SDS011;57757;53.198;19.646;2022-07-01T06:02:03;19.70;;;12.20;;
70337;SDS011;57757;53.198;19.646;2022-07-01T06:04:31;18.30;;;11.60;;
70337;SDS011;57757;53.198;19.646;2022-07-01T06:06:59;16.50;;;11.20;;
70337;SDS011;57757;53.198;19.646;2022-07-01T06:09:26;18.60;;;11.50;;
70337;SDS011;57757;53.198;19.646;2022-07-01T06:11:54;18.20;;;12.50;;
70337;SDS011;57757;53.198;19.646;2022-07-01T06:14:22;18.00;;;11.80;;
70337;SDS011;57757;53.198;19.646;2022-07-01T06:16:49;16.70;;;11.70;;
70337;SDS011;57757;53.198;19.646;2022-07-01T06:19:17;16.80;;;11.20;;
70337;SDS011;57757;53.198;19.646;2022-07-01T06:21:44;16.30;;;11.00;;
70337;SDS011;57757;53.198;19.646;2022-07-01T06:24:12;17.50;;;12.30;;
70337;SDS011;57757;53.198;19.646;2022-07-01T06:26:41;17.20;;;12.00;;
70337;SDS011;57757;53.198;19.646;2022-07-01T06:29:09;15.70;;;12.20;;
70337;SDS011;57757;53.198;19.646;2022-07-01T06:31:38;15.40;;;12.30;;
70337;SDS011;57757;53.198;19.646;2022-07-01T06:34:06;17.30;;;11.60;;
70337;SDS011;57757;53.198;19.646;2022-07-01T06:36:33;16.90;;;12.10;;
70337;SDS011;57757;53.198;19.646;2022-07-01T06:39:01;19.00;;;12.30;;
70337;SDS011;57757;53.198;19.646;2022-07-01T06:41:28;19.30;;;12.40;;
70337;SDS011;57757;53.198;19.646;2022-07-01T06:43:57;17.80;;;12.70;;
70337;SDS011;57757;53.198;19.646;2022-07-01T06:46:29;19.60;;;12.50;;
70337;SDS011;57757;53.198;19.646;2022-07-01T06:48:58;16.30;;;11.90;;
70337;SDS011;57757;53.198;19.646;2022-07-01T06:51:26;20.80;;;12.40;;
70337;SDS011;57757;53.198;19.646;2022-07-01T06:53:55;17.50;;;13.50;;
70337;SDS011;57757;53.198;19.646;2022-07-01T06:56:23;26.20;;;12.80;;
70337;SDS011;57757;53.198;19.646;2022-07-01T06:58:50;21.10;;;12.10;;
70337;SDS011;57757;53.198;19.646;2022-07-01T07:01:18;15.90;;;12.00;;
70337;SDS011;57757;53.198;19.646;2022-07-01T07:03:46;19.30;;;12.70;;
70337;SDS011;57757;53.198;19.646;2022-07-01T07:06:13;19.50;;;12.50;;
70337;SDS011;57757;53.198;19.646;2022-07-01T07:08:41;17.80;;;12.00;;
70337;SDS011;57757;53.198;19.646;2022-07-01T07:11:09;19.50;;;12.30;;
70337;SDS011;57757;53.198;19.646;2022-07-01T07:13:37;20.20;;;13.00;;
70337;SDS011;57757;53.198;19.646;2022-07-01T07:16:04;37.50;;;13.20;;
70337;SDS011;57757;53.198;19.646;2022-07-01T07:18:32;18.70;;;12.70;;
70337;SDS011;57757;53.198;19.646;2022-07-01T07:21:00;15.20;;;11.80;;
70337;SDS011;57757;53.198;19.646;2022-07-01T07:23:29;15.00;;;11.90;;
70337;SDS011;57757;53.198;19.646;2022-07-01T07:25:57;32.90;;;13.30;;
70337;SDS011;57757;53.198;19.646;2022-07-01T07:28:24;17.00;;;12.80;;
70337;SDS011;57757;53.198;19.646;2022-07-01T07:30:52;20.00;;;13.40;;
70337;SDS011;57757;53.198;19.646;2022-07-01T07:33:20;20.10;;;13.10;;
70337;SDS011;57757;53.198;19.646;2022-07-01T07:35:47;18.10;;;12.30;;
70337;SDS011;57757;53.198;19.646;2022-07-01T07:38:15;16.70;;;12.80;;
70337;SDS011;57757;53.198;19.646;2022-07-01T07:40:42;16.60;;;13.10;;
70337;SDS011;57757;53.198;19.646;2022-07-01T07:43:10;19.30;;;11.90;;
70337;SDS011;57757;53.198;19.646;2022-07-01T07:45:37;19.40;;;12.60;;
70337;SDS011;57757;53.198;19.646;2022-07-01T07:48:05;15.70;;;12.00;;
70337;SDS011;57757;53.198;19.646;2022-07-01T07:50:33;16.40;;;11.60;;
70337;SDS011;57757;53.198;19.646;2022-07-01T07:53:02;17.20;;;12.80;;
70337;SDS011;57757;53.198;19.646;2022-07-01T07:55:30;18.30;;;12.00;;
70337;SDS011;57757;53.198;19.646;2022-07-01T07:57:57;17.70;;;12.30;;
70337;SDS011;57757;53.198;19.646;2022-07-01T08:00:25;21.30;;;12.70;;
70337;SDS011;57757;53.198;19.646;2022-07-01T08:02:52;17.10;;;12.70;;
70337;SDS011;57757;53.198;19.646;2022-07-01T08:05:20;15.30;;;11.50;;
70337;SDS011;57757;53.198;19.646;2022-07-01T08:07:48;27.40;;;13.30;;
70337;SDS011;57757;53.198;19.646;2022-07-01T08:10:15;15.20;;;12.00;;
70337;SDS011;57757;53.198;19.646;2022-07-01T08:12:43;16.80;;;11.60;;
70337;SDS011;57757;53.198;19.646;2022-07-01T08:15:10;21.40;;;11.50;;
70337;SDS011;57757;53.198;19.646;2022-07-01T08:17:38;17.10;;;11.80;;
70337;SDS011;57757;53.198;19.646;2022-07-01T08:20:06;17.90;;;11.70;;
70337;SDS011;57757;53.198;19.646;2022-07-01T08:22:34;14.60;;;10.80;;
70337;SDS011;57757;53.198;19.646;2022-07-01T08:25:02;17.10;;;11.10;;
70337;SDS011;57757;53.198;19.646;2022-07-01T08:27:31;20.00;;;11.80;;
70337;SDS011;57757;53.198;19.646;2022-07-01T08:29:58;15.00;;;11.00;;
70337;SDS011;57757;53.198;19.646;2022-07-01T08:32:26;14.30;;;11.20;;
70337;SDS011;57757;53.198;19.646;2022-07-01T08:34:53;15.60;;;11.50;;
70337;SDS011;57757;53.198;19.646;2022-07-01T08:37:21;17.10;;;10.90;;
70337;SDS011;57757;53.198;19.646;2022-07-01T08:39:48;20.60;;;11.50;;
70337;SDS011;57757;53.198;19.646;2022-07-01T08:42:16;16.20;;;11.00;;
70337;SDS011;57757;53.198;19.646;2022-07-01T08:44:44;16.90;;;10.80;;
70337;SDS011;57757;53.198;19.646;2022-07-01T08:47:12;18.50;;;10.50;;
70337;SDS011;57757;53.198;19.646;2022-07-01T08:49:40;15.70;;;10.60;;
70337;SDS011;57757;53.198;19.646;2022-07-01T08:52:08;13.70;;;9.90;;
70337;SDS011;57757;53.198;19.646;2022-07-01T08:54:38;12.70;;;10.60;;
70337;SDS011;57757;53.198;19.646;2022-07-01T08:57:07;13.70;;;10.60;;
70337;SDS011;57757;53.198;19.646;2022-07-01T08:59:35;13.80;;;10.70;;
70337;SDS011;57757;53.198;19.646;2022-07-01T09:02:04;23.70;;;11.00;;
70337;SDS011;57757;53.198;19.646;2022-07-01T09:04:33;19.80;;;9.90;;
70337;SDS011;57757;53.198;19.646;2022-07-01T09:07:06;13.10;;;10.30;;
70337;SDS011;57757;53.198;19.646;2022-07-01T09:09:36;13.00;;;10.40;;
70337;SDS011;57757;53.198;19.646;2022-07-01T09:12:06;13.60;;;11.20;;
70337;SDS011;57757;53.198;19.646;2022-07-01T09:14:34;12.30;;;10.00;;
70337;SDS011;57757;53.198;19.646;2022-07-01T09:17:04;18.10;;;10.10;;
70337;SDS011;57757;53.198;19.646;2022-07-01T09:19:34;14.80;;;10.40;;
70337;SDS011;57757;53.198;19.646;2022-07-01T09:22:10;18.80;;;10.60;;
70337;SDS011;57757;53.198;19.646;2022-07-01T09:24:39;14.40;;;10.40;;
70337;SDS011;57757;53.198;19.646;2022-07-01T09:27:11;15.60;;;10.70;;
70337;SDS011;57757;53.198;19.646;2022-07-01T09:29:48;16.90;;;11.20;;
70337;SDS011;57757;53.198;19.646;2022-07-01T09:32:18;13.80;;;9.90;;
70337;SDS011;57757;53.198;19.646;2022-07-01T09:34:51;11.50;;;9.80;;
70337;SDS011;57757;53.198;19.646;2022-07-01T09:37:24;15.10;;;10.30;;
70337;SDS011;57757;53.198;19.646;2022-07-01T09:42:24;14.40;;;10.50;;
70337;SDS011;57757;53.198;19.646;2022-07-01T09:44:54;13.10;;;10.20;;
70337;SDS011;57757;53.198;19.646;2022-07-01T09:47:31;13.20;;;10.00;;
70337;SDS011;57757;53.198;19.646;2022-07-01T09:50:01;13.10;;;10.10;;
70337;SDS011;57757;53.198;19.646;2022-07-01T09:52:31;13.70;;;10.60;;
70337;SDS011;57757;53.198;19.646;2022-07-01T09:55:04;11.70;;;10.10;;
70337;SDS011;57757;53.198;19.646;2022-07-01T09:57:32;11.90;;;9.60;;
70337;SDS011;57757;53.198;19.646;2022-07-01T10:00:00;13.60;;;10.40;;
70337;SDS011;57757;53.198;19.646;2022-07-01T10:02:28;14.50;;;10.10;;
70337;SDS011;57757;53.198;19.646;2022-07-01T10:04:58;13.80;;;10.30;;
70337;SDS011;57757;53.198;19.646;2022-07-01T10:13:13;12.90;;;10.40;;
70337;SDS011;57757;53.198;19.646;2022-07-01T10:15:44;12.90;;;9.70;;
70337;SDS011;57757;53.198;19.646;2022-07-01T10:20:58;13.90;;;9.90;;
70337;SDS011;57757;53.198;19.646;2022-07-01T10:26:10;11.60;;;9.60;;
70337;SDS011;57757;53.198;19.646;2022-07-01T10:31:15;12.80;;;9.70;;
70337;SDS011;57757;53.198;19.646;2022-07-01T10:33:46;16.20;;;9.60;;
70337;SDS011;57757;53.198;19.646;2022-07-01T10:36:25;16.40;;;9.40;;
70337;SDS011;57757;53.198;19.646;2022-07-01T10:44:09;14.80;;;10.40;;
70337;SDS011;57757;53.198;19.646;2022-07-01T10:46:48;11.80;;;9.90;;
70337;SDS011;57757;53.198;19.646;2022-07-01T10:52:11;17.00;;;14.40;;
70337;SDS011;57757;53.198;19.646;2022-07-01T10:59:47;17.90;;;10.10;;
70337;SDS011;57757;53.198;19.646;2022-07-01T11:02:26;14.00;;;9.40;;
70337;SDS011;57757;53.198;19.646;2022-07-01T11:04:56;13.10;;;9.40;;
70337;SDS011;57757;53.198;19.646;2022-07-01T11:07:27;12.60;;;9.70;;
70337;SDS011;57757;53.198;19.646;2022-07-01T11:09:57;12.60;;;9.70;;
70337;SDS011;57757;53.198;19.646;2022-07-01T11:12:27;14.20;;;9.90;;
70337;SDS011;57757;53.198;19.646;2022-07-01T11:14:56;17.20;;;10.20;;
70337;SDS011;57757;53.198;19.646;2022-07-01T11:17:26;11.80;;;9.60;;
70337;SDS011;57757;53.198;19.646;2022-07-01T11:19:56;30.10;;;10.00;;
70337;SDS011;57757;53.198;19.646;2022-07-01T11:22:26;16.20;;;10.20;;
70337;SDS011;57757;53.198;19.646;2022-07-01T11:24:57;14.80;;;10.70;;
70337;SDS011;57757;53.198;19.646;2022-07-01T11:27:26;13.80;;;9.60;;
70337;SDS011;57757;53.198;19.646;2022-07-01T11:29:56;14.00;;;9.80;;
70337;SDS011;57757;53.198;19.646;2022-07-01T11:32:25;21.90;;;10.00;;
70337;SDS011;57757;53.198;19.646;2022-07-01T11:34:58;20.00;;;10.60;;
70337;SDS011;57757;53.198;19.646;2022-07-01T11:37:28;16.10;;;9.80;;
70337;SDS011;57757;53.198;19.646;2022-07-01T11:40:13;14.00;;;10.10;;
70337;SDS011;57757;53.198;19.646;2022-07-01T11:42:42;16.90;;;10.30;;
70337;SDS011;57757;53.198;19.646;2022-07-01T11:47:56;18.70;;;11.20;;
70337;SDS011;57757;53.198;19.646;2022-07-01T11:50:23;15.10;;;10.60;;
70337;SDS011;57757;53.198;19.646;2022-07-01T11:52:53;14.20;;;11.00;;
70337;SDS011;57757;53.198;19.646;2022-07-01T11:55:21;16.30;;;11.30;;
70337;SDS011;57757;53.198;19.646;2022-07-01T11:58:05;15.40;;;11.10;;
70337;SDS011;57757;53.198;19.646;2022-07-01T12:00:33;14.10;;;12.20;;
70337;SDS011;57757;53.198;19.646;2022-07-01T12:03:02;13.30;;;11.30;;
70337;SDS011;57757;53.198;19.646;2022-07-01T12:05:30;14.90;;;12.30;;
70337;SDS011;57757;53.198;19.646;2022-07-01T12:08:04;16.00;;;11.60;;
70337;SDS011;57757;53.198;19.646;2022-07-01T12:10:32;16.70;;;11.10;;
70337;SDS011;57757;53.198;19.646;2022-07-01T12:13:16;12.70;;;10.60;;
70337;SDS011;57757;53.198;19.646;2022-07-01T12:15:48;15.00;;;12.20;;
70337;SDS011;57757;53.198;19.646;2022-07-01T12:18:16;17.90;;;12.00;;
70337;SDS011;57757;53.198;19.646;2022-07-01T12:20:47;14.80;;;12.30;;
70337;SDS011;57757;53.198;19.646;2022-07-01T12:23:17;14.20;;;12.70;;
70337;SDS011;57757;53.198;19.646;2022-07-01T12:25:48;16.70;;;12.30;;
70337;SDS011;57757;53.198;19.646;2022-07-01T12:31:06;13.80;;;12.40;;
70337;SDS011;57757;53.198;19.646;2022-07-01T12:33:40;16.90;;;13.30;;
70337;SDS011;57757;53.198;19.646;2022-07-01T12:36:16;20.20;;;13.20;;
70337;SDS011;57757;53.198;19.646;2022-07-01T12:38:44;13.70;;;12.40;;
70337;SDS011;57757;53.198;19.646;2022-07-01T12:44:06;21.90;;;13.30;;
70337;SDS011;57757;53.198;19.646;2022-07-01T12:46:47;15.80;;;12.40;;
70337;SDS011;57757;53.198;19.646;2022-07-01T12:49:21;15.10;;;12.50;;
70337;SDS011;57757;53.198;19.646;2022-07-01T12:51:51;15.90;;;12.50;;
70337;SDS011;57757;53.198;19.646;2022-07-01T12:57:05;14.30;;;13.00;;
70337;SDS011;57757;53.198;19.646;2022-07-01T12:59:33;17.10;;;13.80;;
70337;SDS011;57757;53.198;19.646;2022-07-01T13:02:01;15.60;;;13.90;;
70337;SDS011;57757;53.198;19.646;2022-07-01T13:04:29;16.10;;;14.50;;
70337;SDS011;57757;53.198;19.646;2022-07-01T13:06:57;15.10;;;13.50;;
70337;SDS011;57757;53.198;19.646;2022-07-01T13:09:25;16.20;;;14.10;;
70337;SDS011;57757;53.198;19.646;2022-07-01T13:11:52;18.50;;;14.30;;
70337;SDS011;57757;53.198;19.646;2022-07-01T13:14:20;14.50;;;13.00;;
70337;SDS011;57757;53.198;19.646;2022-07-01T13:16:47;14.90;;;13.40;;
70337;SDS011;57757;53.198;19.646;2022-07-01T13:19:15;14.90;;;13.40;;
70337;SDS011;57757;53.198;19.646;2022-07-01T13:21:43;16.90;;;15.20;;
70337;SDS011;57757;53.198;19.646;2022-07-01T13:24:10;20.50;;;14.10;;
70337;SDS011;57757;53.198;19.646;2022-07-01T13:26:58;17.60;;;13.80;;
70337;SDS011;57757;53.198;19.646;2022-07-01T13:29:25;17.20;;;13.40;;
70337;SDS011;57757;53.198;19.646;2022-07-01T13:31:54;16.00;;;14.40;;
70337;SDS011;57757;53.198;19.646;2022-07-01T13:34:23;16.50;;;15.00;;
70337;SDS011;57757;53.198;19.646;2022-07-01T13:36:50;20.60;;;15.70;;
70337;SDS011;57757;53.198;19.646;2022-07-01T13:39:18;17.80;;;15.00;;
70337;SDS011;57757;53.198;19.646;2022-07-01T13:41:45;17.50;;;14.40;;
70337;SDS011;57757;53.198;19.646;2022-07-01T13:44:13;16.70;;;14.50;;
70337;SDS011;57757;53.198;19.646;2022-07-01T13:46:40;14.90;;;13.60;;
70337;SDS011;57757;53.198;19.646;2022-07-01T13:49:13;16.40;;;14.80;;
70337;SDS011;57757;53.198;19.646;2022-07-01T13:51:41;15.40;;;12.80;;
70337;SDS011;57757;53.198;19.646;2022-07-01T13:54:09;14.00;;;12.70;;
70337;SDS011;57757;53.198;19.646;2022-07-01T13:56:37;16.70;;;14.80;;
70337;SDS011;57757;53.198;19.646;2022-07-01T13:59:05;28.00;;;15.80;;
70337;SDS011;57757;53.198;19.646;2022-07-01T14:01:33;15.70;;;14.10;;
70337;SDS011;57757;53.198;19.646;2022-07-01T14:04:02;17.20;;;13.90;;
70337;SDS011;57757;53.198;19.646;2022-07-01T14:06:30;16.50;;;14.80;;
70337;SDS011;57757;53.198;19.646;2022-07-01T14:08:58;16.40;;;14.80;;
70337;SDS011;57757;53.198;19.646;2022-07-01T14:11:25;19.30;;;17.70;;
70337;SDS011;57757;53.198;19.646;2022-07-01T14:13:53;17.40;;;15.80;;
70337;SDS011;57757;53.198;19.646;2022-07-01T14:16:20;15.90;;;14.60;;
70337;SDS011;57757;53.198;19.646;2022-07-01T14:18:48;16.40;;;14.90;;
70337;SDS011;57757;53.198;19.646;2022-07-01T14:21:18;14.60;;;13.30;;
70337;SDS011;57757;53.198;19.646;2022-07-01T14:23:47;18.10;;;16.40;;
70337;SDS011;57757;53.198;19.646;2022-07-01T14:26:22;16.30;;;14.70;;
70337;SDS011;57757;53.198;19.646;2022-07-01T14:28:50;20.40;;;16.30;;
70337;SDS011;57757;53.198;19.646;2022-07-01T14:31:17;16.80;;;15.40;;
70337;SDS011;57757;53.198;19.646;2022-07-01T14:33:45;17.30;;;15.70;;
70337;SDS011;57757;53.198;19.646;2022-07-01T14:36:13;16.70;;;15.20;;
70337;SDS011;57757;53.198;19.646;2022-07-01T14:38:41;16.10;;;14.60;;
70337;SDS011;57757;53.198;19.646;2022-07-01T14:41:08;16.90;;;15.40;;
70337;SDS011;57757;53.198;19.646;2022-07-01T14:43:36;14.70;;;13.20;;
70337;SDS011;57757;53.198;19.646;2022-07-01T14:46:04;14.00;;;12.40;;
70337;SDS011;57757;53.198;19.646;2022-07-01T14:48:36;13.40;;;11.50;;
70337;SDS011;57757;53.198;19.646;2022-07-01T14:51:06;13.90;;;12.40;;
70337;SDS011;57757;53.198;19.646;2022-07-01T14:53:34;12.50;;;11.20;;
70337;SDS011;57757;53.198;19.646;2022-07-01T14:56:02;14.00;;;10.50;;
70337;SDS011;57757;53.198;19.646;2022-07-01T14:58:30;16.90;;;10.20;;
70337;SDS011;57757;53.198;19.646;2022-07-01T15:00:58;14.80;;;10.00;;
70337;SDS011;57757;53.198;19.646;2022-07-01T15:03:26;14.00;;;10.20;;
70337;SDS011;57757;53.198;19.646;2022-07-01T15:05:53;15.60;;;9.10;;
70337;SDS011;57757;53.198;19.646;2022-07-01T15:08:21;14.80;;;9.30;;
70337;SDS011;57757;53.198;19.646;2022-07-01T15:10:49;12.70;;;9.50;;
70337;SDS011;57757;53.198;19.646;2022-07-01T15:13:17;11.10;;;9.40;;
70337;SDS011;57757;53.198;19.646;2022-07-01T15:15:44;11.30;;;8.50;;
70337;SDS011;57757;53.198;19.646;2022-07-01T15:18:12;13.40;;;9.40;;